Terminal Aerodrome Forecast
Issued by NWS

Home | Current Version | Previous Version | Text Only | Print | Product List | Glossary Off
Versions: 1 2 3 4 5 6 7 8 9 10 11 12 13 14 15 16 17 18 19 20 21

000
FTUS42 KMHX 211410 AAA
TAFPGV
TAF AMD
KPGV 211410Z 2114/2212 08008KT P6SM SCT008 BKN015
      TEMPO 2114/2116 OVC008
     FM220300 VRB03KT P6SM BKN010
     FM220900 VRB03KT P6SM BKN100
      AMD LTD TO CLD VIS AND WIND=

USA.gov is the U.S. government's official web portal to all federal, state and local government web resources and services.